sensor_id;sensor_type;location;lat;lon;timestamp;pressure;altitude;pressure_sealevel;temperature;humidity
68301;BME280;55146;47.468;18.806;2022-08-20T00:00:22;99415.72;;;24.40;72.51
68301;BME280;55146;47.468;18.806;2022-08-20T00:02:52;99416.91;;;24.39;72.32
68301;BME280;55146;47.468;18.806;2022-08-20T00:05:40;99421.06;;;24.52;71.74
68301;BME280;55146;47.468;18.806;2022-08-20T00:08:07;99419.97;;;24.27;72.78
68301;BME280;55146;47.468;18.806;2022-08-20T00:10:35;99420.69;;;24.20;73.08
68301;BME280;55146;47.468;18.806;2022-08-20T00:13:03;99421.97;;;24.26;72.72
68301;BME280;55146;47.468;18.806;2022-08-20T00:15:32;99436.94;;;24.07;73.46
68301;BME280;55146;47.468;18.806;2022-08-20T00:17:58;99431.56;;;23.95;73.90
68301;BME280;55146;47.468;18.806;2022-08-20T00:20:26;99433.31;;;24.33;72.33
68301;BME280;55146;47.468;18.806;2022-08-20T00:22:54;99438.13;;;24.33;72.67
68301;BME280;55146;47.468;18.806;2022-08-20T00:25:21;99442.53;;;24.30;72.55
68301;BME280;55146;47.468;18.806;2022-08-20T00:27:46;99435.50;;;24.50;71.32
68301;BME280;55146;47.468;18.806;2022-08-20T00:30:12;99432.38;;;24.55;71.13
68301;BME280;55146;47.468;18.806;2022-08-20T00:32:47;99433.56;;;24.54;71.89
68301;BME280;55146;47.468;18.806;2022-08-20T00:35:15;99429.69;;;24.66;70.84
68301;BME280;55146;47.468;18.806;2022-08-20T00:37:41;99429.94;;;24.54;72.19
68301;BME280;55146;47.468;18.806;2022-08-20T00:40:09;99436.66;;;24.46;71.92
68301;BME280;55146;47.468;18.806;2022-08-20T00:42:49;99438.66;;;24.15;73.98
68301;BME280;55146;47.468;18.806;2022-08-20T00:45:16;99439.59;;;24.56;71.17
68301;BME280;55146;47.468;18.806;2022-08-20T00:47:42;99453.78;;;24.34;72.71
68301;BME280;55146;47.468;18.806;2022-08-20T00:50:12;99453.84;;;23.32;78.31
68301;BME280;55146;47.468;18.806;2022-08-20T00:52:42;99454.44;;;22.99;80.06
68301;BME280;55146;47.468;18.806;2022-08-20T00:55:08;99449.22;;;22.59;82.73
68301;BME280;55146;47.468;18.806;2022-08-20T00:57:39;99451.84;;;23.32;77.90
68301;BME280;55146;47.468;18.806;2022-08-20T01:00:20;99456.44;;;23.44;77.14
68301;BME280;55146;47.468;18.806;2022-08-20T01:02:47;99468.41;;;23.41;77.15
68301;BME280;55146;47.468;18.806;2022-08-20T01:05:13;99474.09;;;22.60;81.67
68301;BME280;55146;47.468;18.806;2022-08-20T01:07:39;99463.84;;;22.68;81.44
68301;BME280;55146;47.468;18.806;2022-08-20T01:10:12;99449.41;;;23.08;78.72
68301;BME280;55146;47.468;18.806;2022-08-20T01:12:40;99451.47;;;23.11;78.72
68301;BME280;55146;47.468;18.806;2022-08-20T01:15:09;99450.44;;;22.58;81.74
68301;BME280;55146;47.468;18.806;2022-08-20T01:17:41;99444.75;;;22.16;84.70
68301;BME280;55146;47.468;18.806;2022-08-20T01:20:16;99441.22;;;22.77;80.78
68301;BME280;55146;47.468;18.806;2022-08-20T01:23:30;99438.91;;;22.82;80.55
68301;BME280;55146;47.468;18.806;2022-08-20T01:26:22;99437.84;;;22.90;79.88
68301;BME280;55146;47.468;18.806;2022-08-20T01:31:19;99435.94;;;23.17;78.18
68301;BME280;55146;47.468;18.806;2022-08-20T01:33:45;99415.91;;;23.19;77.96
68301;BME280;55146;47.468;18.806;2022-08-20T01:36:12;99419.06;;;23.40;76.80
68301;BME280;55146;47.468;18.806;2022-08-20T01:38:37;99418.59;;;23.57;75.91
68301;BME280;55146;47.468;18.806;2022-08-20T01:43:34;99410.25;;;23.64;75.46
68301;BME280;55146;47.468;18.806;2022-08-20T01:46:00;99419.22;;;23.73;74.69
68301;BME280;55146;47.468;18.806;2022-08-20T01:48:26;99411.72;;;23.81;74.30
68301;BME280;55146;47.468;18.806;2022-08-20T01:51:04;99412.00;;;24.02;73.18
68301;BME280;55146;47.468;18.806;2022-08-20T01:53:38;99418.56;;;23.84;73.97
68301;BME280;55146;47.468;18.806;2022-08-20T01:56:06;99413.72;;;24.10;72.69
68301;BME280;55146;47.468;18.806;2022-08-20T01:58:35;99413.81;;;24.17;72.21
68301;BME280;55146;47.468;18.806;2022-08-20T02:01:02;99412.66;;;24.18;72.21
68301;BME280;55146;47.468;18.806;2022-08-20T02:03:27;99406.78;;;24.31;71.38
68301;BME280;55146;47.468;18.806;2022-08-20T02:05:54;99398.84;;;24.40;70.87
68301;BME280;55146;47.468;18.806;2022-08-20T02:08:20;99388.50;;;24.47;70.92
68301;BME280;55146;47.468;18.806;2022-08-20T02:10:47;99377.97;;;24.41;71.26
68301;BME280;55146;47.468;18.806;2022-08-20T02:13:14;99374.13;;;24.23;71.90
68301;BME280;55146;47.468;18.806;2022-08-20T02:15:39;99366.75;;;24.11;72.26
68301;BME280;55146;47.468;18.806;2022-08-20T02:18:07;99384.69;;;24.33;71.07
68301;BME280;55146;47.468;18.806;2022-08-20T02:20:35;99384.78;;;24.10;72.03
68301;BME280;55146;47.468;18.806;2022-08-20T02:23:00;99379.12;;;24.06;71.89
68301;BME280;55146;47.468;18.806;2022-08-20T02:25:28;99377.69;;;24.19;71.40
68301;BME280;55146;47.468;18.806;2022-08-20T02:27:55;99380.72;;;24.07;71.89
68301;BME280;55146;47.468;18.806;2022-08-20T02:30:28;99386.94;;;24.20;71.32
68301;BME280;55146;47.468;18.806;2022-08-20T02:32:58;99393.81;;;23.93;72.24
68301;BME280;55146;47.468;18.806;2022-08-20T02:35:25;99413.13;;;23.98;72.07
68301;BME280;55146;47.468;18.806;2022-08-20T02:37:52;99422.47;;;23.75;72.96
68301;BME280;55146;47.468;18.806;2022-08-20T02:40:19;99427.69;;;22.82;78.28
68301;BME280;55146;47.468;18.806;2022-08-20T02:42:45;99429.37;;;23.10;76.96
68301;BME280;55146;47.468;18.806;2022-08-20T02:45:14;99428.38;;;22.98;77.53
68301;BME280;55146;47.468;18.806;2022-08-20T02:47:42;99411.69;;;23.06;77.36
68301;BME280;55146;47.468;18.806;2022-08-20T02:50:11;99401.47;;;23.43;75.19
68301;BME280;55146;47.468;18.806;2022-08-20T02:52:38;99393.63;;;23.29;76.05
68301;BME280;55146;47.468;18.806;2022-08-20T02:55:04;99391.34;;;23.61;74.09
68301;BME280;55146;47.468;18.806;2022-08-20T02:57:29;99406.44;;;23.76;73.36
68301;BME280;55146;47.468;18.806;2022-08-20T02:59:55;99426.50;;;23.78;73.09
68301;BME280;55146;47.468;18.806;2022-08-20T03:02:20;99454.56;;;23.52;74.18
68301;BME280;55146;47.468;18.806;2022-08-20T03:04:46;99490.75;;;23.11;76.42
68301;BME280;55146;47.468;18.806;2022-08-20T03:07:11;99508.34;;;22.50;80.27
68301;BME280;55146;47.468;18.806;2022-08-20T03:09:37;99502.03;;;21.84;84.46
68301;BME280;55146;47.468;18.806;2022-08-20T03:12:04;99495.56;;;22.14;82.25
68301;BME280;55146;47.468;18.806;2022-08-20T03:14:31;99498.94;;;21.89;84.10
68301;BME280;55146;47.468;18.806;2022-08-20T03:16:56;99495.72;;;22.60;79.10
68301;BME280;55146;47.468;18.806;2022-08-20T03:19:22;99500.28;;;23.07;76.65
68301;BME280;55146;47.468;18.806;2022-08-20T03:21:47;99516.13;;;22.95;77.19
68301;BME280;55146;47.468;18.806;2022-08-20T03:24:14;99515.69;;;23.16;76.29
68301;BME280;55146;47.468;18.806;2022-08-20T03:26:39;99521.94;;;22.87;78.08
68301;BME280;55146;47.468;18.806;2022-08-20T03:29:04;99524.00;;;22.71;78.57
68301;BME280;55146;47.468;18.806;2022-08-20T03:31:30;99528.66;;;23.02;76.77
68301;BME280;55146;47.468;18.806;2022-08-20T03:33:55;99531.62;;;23.31;75.34
68301;BME280;55146;47.468;18.806;2022-08-20T03:36:22;99521.84;;;23.67;73.73
68301;BME280;55146;47.468;18.806;2022-08-20T03:38:48;99515.78;;;23.88;73.06
68301;BME280;55146;47.468;18.806;2022-08-20T03:41:14;99505.44;;;23.69;73.85
68301;BME280;55146;47.468;18.806;2022-08-20T03:43:39;99508.19;;;23.66;73.79
68301;BME280;55146;47.468;18.806;2022-08-20T03:46:06;99504.50;;;23.62;74.06
68301;BME280;55146;47.468;18.806;2022-08-20T03:48:31;99507.56;;;23.76;73.16
68301;BME280;55146;47.468;18.806;2022-08-20T03:50:57;99510.50;;;23.60;73.71
68301;BME280;55146;47.468;18.806;2022-08-20T03:53:25;99495.50;;;23.75;73.05
68301;BME280;55146;47.468;18.806;2022-08-20T03:55:50;99489.06;;;24.01;72.26
68301;BME280;55146;47.468;18.806;2022-08-20T03:58:20;99491.16;;;24.08;71.69
68301;BME280;55146;47.468;18.806;2022-08-20T04:00:48;99501.06;;;23.98;72.14
68301;BME280;55146;47.468;18.806;2022-08-20T04:03:14;99482.59;;;23.97;72.03
68301;BME280;55146;47.468;18.806;2022-08-20T04:05:42;99480.03;;;23.89;72.66
68301;BME280;55146;47.468;18.806;2022-08-20T04:08:13;99478.25;;;24.03;71.76
68301;BME280;55146;47.468;18.806;2022-08-20T04:10:40;99481.88;;;24.04;71.90
68301;BME280;55146;47.468;18.806;2022-08-20T04:13:06;99501.88;;;23.99;71.88
68301;BME280;55146;47.468;18.806;2022-08-20T04:15:33;99491.25;;;24.15;71.03
68301;BME280;55146;47.468;18.806;2022-08-20T04:17:59;99489.69;;;24.17;71.11
68301;BME280;55146;47.468;18.806;2022-08-20T04:20:26;99477.38;;;24.26;70.80
68301;BME280;55146;47.468;18.806;2022-08-20T04:22:55;99473.84;;;24.32;70.23
68301;BME280;55146;47.468;18.806;2022-08-20T04:25:21;99478.72;;;24.35;69.86
68301;BME280;55146;47.468;18.806;2022-08-20T04:27:47;99467.87;;;24.07;71.29
68301;BME280;55146;47.468;18.806;2022-08-20T04:30:17;99473.44;;;24.04;71.36
68301;BME280;55146;47.468;18.806;2022-08-20T04:32:43;99478.09;;;23.93;71.80
68301;BME280;55146;47.468;18.806;2022-08-20T04:35:11;99482.72;;;24.08;70.95
68301;BME280;55146;47.468;18.806;2022-08-20T04:37:40;99485.72;;;23.92;71.90
68301;BME280;55146;47.468;18.806;2022-08-20T04:40:09;99485.56;;;23.82;72.38
68301;BME280;55146;47.468;18.806;2022-08-20T04:42:53;99474.63;;;23.76;72.50
68301;BME280;55146;47.468;18.806;2022-08-20T04:45:19;99486.91;;;23.91;72.16
68301;BME280;55146;47.468;18.806;2022-08-20T04:47:46;99482.06;;;23.88;72.20
68301;BME280;55146;47.468;18.806;2022-08-20T04:50:12;99490.19;;;23.97;71.90
68301;BME280;55146;47.468;18.806;2022-08-20T04:52:38;99482.37;;;23.57;73.87
68301;BME280;55146;47.468;18.806;2022-08-20T04:55:05;99466.59;;;23.75;72.83
68301;BME280;55146;47.468;18.806;2022-08-20T04:57:31;99460.81;;;23.91;72.25
68301;BME280;55146;47.468;18.806;2022-08-20T04:59:56;99459.97;;;23.64;73.75
68301;BME280;55146;47.468;18.806;2022-08-20T05:02:22;99470.47;;;23.67;73.48
68301;BME280;55146;47.468;18.806;2022-08-20T05:04:47;99488.75;;;23.80;72.71
68301;BME280;55146;47.468;18.806;2022-08-20T05:07:14;99493.06;;;24.00;71.67
68301;BME280;55146;47.468;18.806;2022-08-20T05:09:41;99506.56;;;24.17;71.04
68301;BME280;55146;47.468;18.806;2022-08-20T05:12:07;99516.16;;;24.13;71.40
68301;BME280;55146;47.468;18.806;2022-08-20T05:14:33;99516.34;;;23.74;73.29
68301;BME280;55146;47.468;18.806;2022-08-20T05:17:02;99510.97;;;23.43;74.83
68301;BME280;55146;47.468;18.806;2022-08-20T05:19:30;99507.44;;;23.69;73.53
68301;BME280;55146;47.468;18.806;2022-08-20T05:21:56;99505.84;;;23.94;72.43
68301;BME280;55146;47.468;18.806;2022-08-20T05:24:22;99498.97;;;23.92;73.11
68301;BME280;55146;47.468;18.806;2022-08-20T05:26:48;99509.81;;;24.19;71.26
68301;BME280;55146;47.468;18.806;2022-08-20T05:29:13;99499.88;;;24.26;71.61
68301;BME280;55146;47.468;18.806;2022-08-20T05:31:39;99500.06;;;23.61;75.59
68301;BME280;55146;47.468;18.806;2022-08-20T05:34:09;99488.25;;;23.29;77.02
68301;BME280;55146;47.468;18.806;2022-08-20T05:36:36;99475.28;;;23.44;75.71
68301;BME280;55146;47.468;18.806;2022-08-20T05:39:03;99483.78;;;23.70;74.61
68301;BME280;55146;47.468;18.806;2022-08-20T05:41:29;99489.28;;;23.89;73.12
68301;BME280;55146;47.468;18.806;2022-08-20T05:43:54;99499.84;;;24.22;72.12
68301;BME280;55146;47.468;18.806;2022-08-20T05:46:20;99504.50;;;23.62;75.78
68301;BME280;55146;47.468;18.806;2022-08-20T05:48:46;99506.59;;;23.46;76.62
68301;BME280;55146;47.468;18.806;2022-08-20T05:51:11;99488.69;;;23.76;75.05
68301;BME280;55146;47.468;18.806;2022-08-20T05:53:37;99472.72;;;23.58;75.62
68301;BME280;55146;47.468;18.806;2022-08-20T05:56:02;99450.38;;;23.42;78.37
68301;BME280;55146;47.468;18.806;2022-08-20T05:58:28;99471.50;;;23.55;76.99
68301;BME280;55146;47.468;18.806;2022-08-20T06:00:57;99513.56;;;23.10;79.58
68301;BME280;55146;47.468;18.806;2022-08-20T06:03:23;99499.38;;;22.06;86.85
68301;BME280;55146;47.468;18.806;2022-08-20T06:06:08;99476.56;;;22.62;83.00
68301;BME280;55146;47.468;18.806;2022-08-20T06:08:35;99483.63;;;22.94;80.23
68301;BME280;55146;47.468;18.806;2022-08-20T06:11:01;99485.31;;;22.99;79.95
68301;BME280;55146;47.468;18.806;2022-08-20T06:13:26;99487.09;;;23.07;80.54
68301;BME280;55146;47.468;18.806;2022-08-20T06:15:53;99501.94;;;22.69;83.07
68301;BME280;55146;47.468;18.806;2022-08-20T06:18:19;99506.53;;;22.58;84.50
68301;BME280;55146;47.468;18.806;2022-08-20T06:20:45;99507.75;;;22.60;84.77
68301;BME280;55146;47.468;18.806;2022-08-20T06:23:10;99511.75;;;22.79;81.70
68301;BME280;55146;47.468;18.806;2022-08-20T06:25:36;99520.66;;;23.04;82.21
68301;BME280;55146;47.468;18.806;2022-08-20T06:28:03;99529.69;;;23.13;80.66
68301;BME280;55146;47.468;18.806;2022-08-20T06:30:28;99538.19;;;22.58;85.04
68301;BME280;55146;47.468;18.806;2022-08-20T06:32:54;99549.09;;;22.29;86.03
68301;BME280;55146;47.468;18.806;2022-08-20T06:35:19;99556.56;;;22.21;87.25
68301;BME280;55146;47.468;18.806;2022-08-20T06:37:45;99558.03;;;21.84;89.25
68301;BME280;55146;47.468;18.806;2022-08-20T06:40:25;99558.84;;;22.00;88.71
68301;BME280;55146;47.468;18.806;2022-08-20T06:42:53;99551.69;;;21.87;89.91
68301;BME280;55146;47.468;18.806;2022-08-20T06:45:25;99547.75;;;22.03;88.96
68301;BME280;55146;47.468;18.806;2022-08-20T06:47:56;99537.69;;;21.87;90.02
68301;BME280;55146;47.468;18.806;2022-08-20T06:50:27;99545.13;;;22.30;86.25
68301;BME280;55146;47.468;18.806;2022-08-20T06:52:53;99534.91;;;22.02;88.59
68301;BME280;55146;47.468;18.806;2022-08-20T06:55:20;99541.22;;;22.34;86.27
68301;BME280;55146;47.468;18.806;2022-08-20T06:57:45;99548.09;;;22.37;85.71
68301;BME280;55146;47.468;18.806;2022-08-20T07:00:16;99546.13;;;22.37;85.63
68301;BME280;55146;47.468;18.806;2022-08-20T07:02:42;99563.22;;;22.86;82.47
68301;BME280;55146;47.468;18.806;2022-08-20T07:05:08;99564.25;;;22.78;82.85
68301;BME280;55146;47.468;18.806;2022-08-20T07:07:33;99569.94;;;23.01;82.11
68301;BME280;55146;47.468;18.806;2022-08-20T07:10:10;99571.81;;;22.58;85.11
68301;BME280;55146;47.468;18.806;2022-08-20T07:12:37;99581.37;;;22.38;86.25
68301;BME280;55146;47.468;18.806;2022-08-20T07:15:04;99588.16;;;22.72;84.46
68301;BME280;55146;47.468;18.806;2022-08-20T07:17:31;99583.97;;;22.82;83.20
68301;BME280;55146;47.468;18.806;2022-08-20T07:19:57;99590.66;;;23.16;81.21
68301;BME280;55146;47.468;18.806;2022-08-20T07:22:22;99593.41;;;22.93;82.16
68301;BME280;55146;47.468;18.806;2022-08-20T07:24:49;99601.16;;;22.80;82.85
68301;BME280;55146;47.468;18.806;2022-08-20T07:27:19;99601.69;;;22.86;82.70
68301;BME280;55146;47.468;18.806;2022-08-20T07:29:44;99611.31;;;23.27;80.10
68301;BME280;55146;47.468;18.806;2022-08-20T07:32:28;99632.69;;;23.31;79.21
68301;BME280;55146;47.468;18.806;2022-08-20T07:35:02;99655.81;;;23.06;81.45
68301;BME280;55146;47.468;18.806;2022-08-20T07:37:28;99648.56;;;21.88;89.62
68301;BME280;55146;47.468;18.806;2022-08-20T07:39:54;99662.19;;;22.52;84.67
68301;BME280;55146;47.468;18.806;2022-08-20T07:42:19;99677.06;;;22.21;87.41
68301;BME280;55146;47.468;18.806;2022-08-20T07:44:44;99680.41;;;22.11;88.21
68301;BME280;55146;47.468;18.806;2022-08-20T07:47:10;99679.84;;;21.46;90.80
68301;BME280;55146;47.468;18.806;2022-08-20T07:49:39;99681.00;;;21.05;92.70
68301;BME280;55146;47.468;18.806;2022-08-20T07:52:05;99686.59;;;21.45;90.64
68301;BME280;55146;47.468;18.806;2022-08-20T07:54:30;99690.31;;;21.49;89.83
68301;BME280;55146;47.468;18.806;2022-08-20T07:57:00;99692.06;;;21.54;87.88
68301;BME280;55146;47.468;18.806;2022-08-20T07:59:28;99684.44;;;21.54;85.50
68301;BME280;55146;47.468;18.806;2022-08-20T08:01:53;99683.75;;;21.29;86.74
68301;BME280;55146;47.468;18.806;2022-08-20T08:04:18;99684.56;;;21.30;88.37
68301;BME280;55146;47.468;18.806;2022-08-20T08:06:44;99696.47;;;21.55;86.34
68301;BME280;55146;47.468;18.806;2022-08-20T08:09:12;99699.44;;;21.46;86.97
68301;BME280;55146;47.468;18.806;2022-08-20T08:11:40;99694.72;;;21.94;84.42
68301;BME280;55146;47.468;18.806;2022-08-20T08:14:07;99692.97;;;22.33;82.24
68301;BME280;55146;47.468;18.806;2022-08-20T08:16:35;99692.59;;;22.34;82.10
68301;BME280;55146;47.468;18.806;2022-08-20T08:19:03;99689.44;;;22.36;81.09
68301;BME280;55146;47.468;18.806;2022-08-20T08:21:31;99685.12;;;22.89;78.87
68301;BME280;55146;47.468;18.806;2022-08-20T08:23:57;99690.53;;;23.36;76.67
68301;BME280;55146;47.468;18.806;2022-08-20T08:26:22;99682.63;;;23.61;75.61
68301;BME280;55146;47.468;18.806;2022-08-20T08:28:47;99675.97;;;23.69;74.81
68301;BME280;55146;47.468;18.806;2022-08-20T08:31:13;99660.56;;;23.82;74.58
68301;BME280;55146;47.468;18.806;2022-08-20T08:33:39;99653.25;;;23.77;74.72
68301;BME280;55146;47.468;18.806;2022-08-20T08:36:07;99658.09;;;23.58;75.04
68301;BME280;55146;47.468;18.806;2022-08-20T08:38:37;99659.44;;;23.45;76.18
68301;BME280;55146;47.468;18.806;2022-08-20T08:41:31;99653.31;;;23.20;77.43
68301;BME280;55146;47.468;18.806;2022-08-20T08:44:07;99643.91;;;23.31;77.18
68301;BME280;55146;47.468;18.806;2022-08-20T08:46:38;99655.97;;;23.32;77.21
68301;BME280;55146;47.468;18.806;2022-08-20T08:49:04;99677.09;;;23.26;77.34
68301;BME280;55146;47.468;18.806;2022-08-20T08:51:36;99680.78;;;23.30;77.29
68301;BME280;55146;47.468;18.806;2022-08-20T08:54:06;99668.88;;;23.36;77.28
68301;BME280;55146;47.468;18.806;2022-08-20T08:56:33;99650.06;;;23.56;76.27
68301;BME280;55146;47.468;18.806;2022-08-20T08:59:02;99645.25;;;23.57;76.25
68301;BME280;55146;47.468;18.806;2022-08-20T09:01:31;99632.25;;;23.49;76.77
68301;BME280;55146;47.468;18.806;2022-08-20T09:03:57;99630.38;;;23.37;77.05
68301;BME280;55146;47.468;18.806;2022-08-20T09:06:24;99644.34;;;23.53;76.25
68301;BME280;55146;47.468;18.806;2022-08-20T09:08:57;99646.62;;;23.66;75.20
68301;BME280;55146;47.468;18.806;2022-08-20T09:11:25;99635.66;;;23.81;74.72
68301;BME280;55146;47.468;18.806;2022-08-20T09:13:52;99614.03;;;23.62;75.68
68301;BME280;55146;47.468;18.806;2022-08-20T09:16:19;99600.94;;;23.69;75.31
68301;BME280;55146;47.468;18.806;2022-08-20T09:18:47;99606.88;;;23.87;74.36
68301;BME280;55146;47.468;18.806;2022-08-20T09:21:12;99600.19;;;23.72;75.10
68301;BME280;55146;47.468;18.806;2022-08-20T09:23:39;99611.59;;;23.60;75.70
68301;BME280;55146;47.468;18.806;2022-08-20T09:26:05;99617.72;;;23.66;75.42
68301;BME280;55146;47.468;18.806;2022-08-20T09:28:31;99625.66;;;23.60;75.33
68301;BME280;55146;47.468;18.806;2022-08-20T09:30:57;99646.56;;;23.44;76.24
68301;BME280;55146;47.468;18.806;2022-08-20T09:33:23;99653.00;;;23.25;77.36
68301;BME280;55146;47.468;18.806;2022-08-20T09:35:48;99638.59;;;23.26;76.49
68301;BME280;55146;47.468;18.806;2022-08-20T09:38:14;99647.97;;;23.34;76.64
68301;BME280;55146;47.468;18.806;2022-08-20T09:40:39;99654.53;;;23.42;76.08
68301;BME280;55146;47.468;18.806;2022-08-20T09:43:05;99648.34;;;23.32;76.47
68301;BME280;55146;47.468;18.806;2022-08-20T09:45:31;99654.34;;;23.12;77.30
68301;BME280;55146;47.468;18.806;2022-08-20T09:47:56;99640.81;;;23.17;77.10
68301;BME280;55146;47.468;18.806;2022-08-20T09:50:22;99654.03;;;23.17;76.97
68301;BME280;55146;47.468;18.806;2022-08-20T09:52:49;99653.00;;;23.06;77.56
68301;BME280;55146;47.468;18.806;2022-08-20T09:55:20;99645.22;;;22.80;78.70
68301;BME280;55146;47.468;18.806;2022-08-20T09:57:47;99639.25;;;22.81;78.35
68301;BME280;55146;47.468;18.806;2022-08-20T10:00:14;99633.84;;;22.73;78.67
68301;BME280;55146;47.468;18.806;2022-08-20T10:02:40;99628.41;;;22.80;78.11
68301;BME280;55146;47.468;18.806;2022-08-20T10:05:06;99607.06;;;22.75;77.55
68301;BME280;55146;47.468;18.806;2022-08-20T10:07:33;99595.09;;;22.78;77.25
68301;BME280;55146;47.468;18.806;2022-08-20T10:09:59;99577.69;;;22.53;78.22
68301;BME280;55146;47.468;18.806;2022-08-20T10:12:24;99569.97;;;22.66;78.09
68301;BME280;55146;47.468;18.806;2022-08-20T10:14:49;99552.97;;;22.75;77.05
68301;BME280;55146;47.468;18.806;2022-08-20T10:17:15;99549.66;;;22.88;76.37
68301;BME280;55146;47.468;18.806;2022-08-20T10:19:40;99533.63;;;22.89;76.27
68301;BME280;55146;47.468;18.806;2022-08-20T10:22:05;99520.03;;;22.91;76.15
68301;BME280;55146;47.468;18.806;2022-08-20T10:24:31;99526.94;;;22.97;77.20
68301;BME280;55146;47.468;18.806;2022-08-20T10:26:58;99533.84;;;22.99;77.39
68301;BME280;55146;47.468;18.806;2022-08-20T10:29:25;99547.78;;;23.38;74.95
68301;BME280;55146;47.468;18.806;2022-08-20T10:31:51;99560.41;;;23.70;74.33
68301;BME280;55146;47.468;18.806;2022-08-20T10:34:17;99588.06;;;23.91;75.03
68301;BME280;55146;47.468;18.806;2022-08-20T10:36:43;99614.66;;;23.97;75.43
68301;BME280;55146;47.468;18.806;2022-08-20T10:39:08;99620.22;;;23.71;76.69
68301;BME280;55146;47.468;18.806;2022-08-20T10:41:34;99601.06;;;23.15;81.07
68301;BME280;55146;47.468;18.806;2022-08-20T10:43:59;99588.94;;;23.30;79.53
68301;BME280;55146;47.468;18.806;2022-08-20T10:46:24;99572.50;;;23.52;80.91
68301;BME280;55146;47.468;18.806;2022-08-20T10:48:50;99566.41;;;23.27;76.52
68301;BME280;55146;47.468;18.806;2022-08-20T10:51:15;99571.34;;;23.33;78.97
68301;BME280;55146;47.468;18.806;2022-08-20T10:53:40;99574.06;;;23.26;78.00
68301;BME280;55146;47.468;18.806;2022-08-20T10:56:06;99585.78;;;23.51;77.87
68301;BME280;55146;47.468;18.806;2022-08-20T10:58:31;99599.41;;;23.53;77.43
68301;BME280;55146;47.468;18.806;2022-08-20T11:00:56;99618.84;;;23.84;75.82
68301;BME280;55146;47.468;18.806;2022-08-20T11:03:22;99619.59;;;23.81;75.11
68301;BME280;55146;47.468;18.806;2022-08-20T11:05:47;99624.59;;;23.91;75.47
68301;BME280;55146;47.468;18.806;2022-08-20T11:08:13;99620.91;;;23.87;76.11
68301;BME280;55146;47.468;18.806;2022-08-20T11:10:38;99631.16;;;23.76;75.34
68301;BME280;55146;47.468;18.806;2022-08-20T11:13:05;99626.03;;;24.04;74.17
68301;BME280;55146;47.468;18.806;2022-08-20T11:15:33;99627.28;;;24.07;73.91
68301;BME280;55146;47.468;18.806;2022-08-20T11:17:59;99635.31;;;24.08;73.64
68301;BME280;55146;47.468;18.806;2022-08-20T11:20:25;99633.34;;;24.32;73.98
68301;BME280;55146;47.468;18.806;2022-08-20T11:22:51;99635.87;;;24.40;73.59
68301;BME280;55146;47.468;18.806;2022-08-20T11:25:18;99628.84;;;24.53;74.13
68301;BME280;55146;47.468;18.806;2022-08-20T11:27:46;99630.03;;;24.82;73.04
68301;BME280;55146;47.468;18.806;2022-08-20T11:30:18;99625.59;;;24.81;73.95
68301;BME280;55146;47.468;18.806;2022-08-20T11:32:44;99620.28;;;24.73;73.71
68301;BME280;55146;47.468;18.806;2022-08-20T11:35:10;99619.66;;;24.86;71.98
68301;BME280;55146;47.468;18.806;2022-08-20T11:37:35;99619.22;;;24.84;71.47
68301;BME280;55146;47.468;18.806;2022-08-20T11:40:00;99615.34;;;24.92;71.92
68301;BME280;55146;47.468;18.806;2022-08-20T11:42:26;99613.94;;;24.79;72.12
68301;BME280;55146;47.468;18.806;2022-08-20T11:44:51;99602.22;;;24.47;72.99
68301;BME280;55146;47.468;18.806;2022-08-20T11:47:25;99620.78;;;24.52;74.15
68301;BME280;55146;47.468;18.806;2022-08-20T11:50:04;99615.88;;;24.75;72.82
68301;BME280;55146;47.468;18.806;2022-08-20T11:52:30;99620.94;;;24.63;72.66
68301;BME280;55146;47.468;18.806;2022-08-20T11:54:56;99617.97;;;24.52;71.85
68301;BME280;55146;47.468;18.806;2022-08-20T11:57:24;99607.59;;;24.30;73.87
68301;BME280;55146;47.468;18.806;2022-08-20T11:59:51;99603.84;;;24.22;73.92
68301;BME280;55146;47.468;18.806;2022-08-20T12:02:17;99602.81;;;24.34;73.61
68301;BME280;55146;47.468;18.806;2022-08-20T12:04:43;99597.56;;;23.83;77.43
68301;BME280;55146;47.468;18.806;2022-08-20T12:07:13;99598.44;;;23.87;75.81
68301;BME280;55146;47.468;18.806;2022-08-20T12:09:40;99591.84;;;24.02;75.67
68301;BME280;55146;47.468;18.806;2022-08-20T12:12:06;99591.41;;;24.23;75.58
68301;BME280;55146;47.468;18.806;2022-08-20T12:14:32;99580.69;;;24.06;75.52
68301;BME280;55146;47.468;18.806;2022-08-20T12:17:06;99583.38;;;23.99;76.55
68301;BME280;55146;47.468;18.806;2022-08-20T12:19:32;99584.03;;;24.15;75.57
68301;BME280;55146;47.468;18.806;2022-08-20T12:21:57;99587.34;;;24.21;75.35
68301;BME280;55146;47.468;18.806;2022-08-20T12:24:23;99579.19;;;23.89;76.39
68301;BME280;55146;47.468;18.806;2022-08-20T12:26:48;99582.69;;;24.05;75.23
68301;BME280;55146;47.468;18.806;2022-08-20T12:29:13;99570.06;;;24.18;75.17
68301;BME280;55146;47.468;18.806;2022-08-20T12:31:38;99566.22;;;24.30;74.94
68301;BME280;55146;47.468;18.806;2022-08-20T12:34:04;99563.88;;;24.09;74.24
68301;BME280;55146;47.468;18.806;2022-08-20T12:36:30;99559.72;;;24.00;74.82
68301;BME280;55146;47.468;18.806;2022-08-20T12:38:55;99551.25;;;24.23;74.63
68301;BME280;55146;47.468;18.806;2022-08-20T12:41:20;99549.78;;;23.83;76.09
68301;BME280;55146;47.468;18.806;2022-08-20T12:43:45;99540.22;;;24.14;74.32
68301;BME280;55146;47.468;18.806;2022-08-20T12:46:11;99528.13;;;23.84;76.89
68301;BME280;55146;47.468;18.806;2022-08-20T12:48:36;99525.81;;;23.89;76.19
68301;BME280;55146;47.468;18.806;2022-08-20T12:51:02;99521.56;;;23.99;76.30
68301;BME280;55146;47.468;18.806;2022-08-20T12:53:27;99517.06;;;24.21;75.26
68301;BME280;55146;47.468;18.806;2022-08-20T12:55:52;99513.44;;;23.94;76.17